sensor_id;sensor_type;location;lat;lon;timestamp;temperature;humidity
1578;DHT22;57623;53.608;10.004;2023-06-22T00:01:26;18.30;99.90
1578;DHT22;57623;53.608;10.004;2023-06-22T00:03:54;18.30;99.90
1578;DHT22;57623;53.608;10.004;2023-06-22T00:06:23;18.20;99.90
1578;DHT22;57623;53.608;10.004;2023-06-22T00:08:50;18.20;99.90
1578;DHT22;57623;53.608;10.004;2023-06-22T00:11:18;18.10;99.90
1578;DHT22;57623;53.608;10.004;2023-06-22T00:13:48;18.10;99.90
1578;DHT22;57623;53.608;10.004;2023-06-22T00:16:17;18.10;99.90
1578;DHT22;57623;53.608;10.004;2023-06-22T00:18:45;18.10;99.90
1578;DHT22;57623;53.608;10.004;2023-06-22T00:21:15;18.00;99.90
1578;DHT22;57623;53.608;10.004;2023-06-22T00:23:43;18.00;99.90
1578;DHT22;57623;53.608;10.004;2023-06-22T00:26:11;18.00;99.90
1578;DHT22;57623;53.608;10.004;2023-06-22T00:28:39;18.00;99.90
1578;DHT22;57623;53.608;10.004;2023-06-22T00:31:08;17.90;99.90
1578;DHT22;57623;53.608;10.004;2023-06-22T00:33:37;17.90;99.90
1578;DHT22;57623;53.608;10.004;2023-06-22T00:36:05;17.90;99.90
1578;DHT22;57623;53.608;10.004;2023-06-22T00:38:34;17.90;99.90
1578;DHT22;57623;53.608;10.004;2023-06-22T00:41:07;17.90;99.90
1578;DHT22;57623;53.608;10.004;2023-06-22T00:43:35;17.90;99.90
1578;DHT22;57623;53.608;10.004;2023-06-22T00:46:03;17.90;99.90
1578;DHT22;57623;53.608;10.004;2023-06-22T00:48:32;17.90;99.90
1578;DHT22;57623;53.608;10.004;2023-06-22T00:51:01;17.90;99.90
1578;DHT22;57623;53.608;10.004;2023-06-22T00:53:30;17.90;99.90
1578;DHT22;57623;53.608;10.004;2023-06-22T00:56:02;17.90;99.90
1578;DHT22;57623;53.608;10.004;2023-06-22T00:58:30;17.90;99.90
1578;DHT22;57623;53.608;10.004;2023-06-22T01:00:58;17.90;99.90
1578;DHT22;57623;53.608;10.004;2023-06-22T01:03:27;17.90;99.90
1578;DHT22;57623;53.608;10.004;2023-06-22T01:06:02;17.90;99.90
1578;DHT22;57623;53.608;10.004;2023-06-22T01:08:34;17.90;99.90
1578;DHT22;57623;53.608;10.004;2023-06-22T01:11:12;17.80;99.90
1578;DHT22;57623;53.608;10.004;2023-06-22T01:13:50;17.80;99.90
1578;DHT22;57623;53.608;10.004;2023-06-22T01:16:24;17.80;99.90
1578;DHT22;57623;53.608;10.004;2023-06-22T01:18:56;17.80;99.90
1578;DHT22;57623;53.608;10.004;2023-06-22T01:21:29;17.80;99.90
1578;DHT22;57623;53.608;10.004;2023-06-22T01:24:09;17.80;99.90
1578;DHT22;57623;53.608;10.004;2023-06-22T01:26:49;17.80;99.90
1578;DHT22;57623;53.608;10.004;2023-06-22T01:29:24;17.80;99.90
1578;DHT22;57623;53.608;10.004;2023-06-22T01:31:54;17.80;99.90
1578;DHT22;57623;53.608;10.004;2023-06-22T01:34:24;17.80;99.90
1578;DHT22;57623;53.608;10.004;2023-06-22T01:36:53;17.70;99.90
1578;DHT22;57623;53.608;10.004;2023-06-22T01:39:21;17.70;99.90
1578;DHT22;57623;53.608;10.004;2023-06-22T01:41:50;17.70;99.90
1578;DHT22;57623;53.608;10.004;2023-06-22T01:44:18;17.70;99.90
1578;DHT22;57623;53.608;10.004;2023-06-22T01:46:49;17.60;99.90
1578;DHT22;57623;53.608;10.004;2023-06-22T01:49:20;17.60;99.90
1578;DHT22;57623;53.608;10.004;2023-06-22T01:51:48;17.60;99.90
1578;DHT22;57623;53.608;10.004;2023-06-22T01:54:16;17.60;99.90
1578;DHT22;57623;53.608;10.004;2023-06-22T01:56:44;17.60;99.90
1578;DHT22;57623;53.608;10.004;2023-06-22T01:59:15;17.50;99.90
1578;DHT22;57623;53.608;10.004;2023-06-22T02:01:51;17.50;99.90
1578;DHT22;57623;53.608;10.004;2023-06-22T02:04:26;17.50;99.90
1578;DHT22;57623;53.608;10.004;2023-06-22T02:06:57;17.50;99.90
1578;DHT22;57623;53.608;10.004;2023-06-22T02:09:29;17.50;99.90
1578;DHT22;57623;53.608;10.004;2023-06-22T02:11:58;17.50;99.90
1578;DHT22;57623;53.608;10.004;2023-06-22T02:14:28;17.50;99.90
1578;DHT22;57623;53.608;10.004;2023-06-22T02:16:58;17.50;99.90
1578;DHT22;57623;53.608;10.004;2023-06-22T02:19:27;17.50;99.90
1578;DHT22;57623;53.608;10.004;2023-06-22T02:21:59;17.40;99.90
1578;DHT22;57623;53.608;10.004;2023-06-22T02:24:27;17.40;99.90
1578;DHT22;57623;53.608;10.004;2023-06-22T02:26:57;17.40;99.90
1578;DHT22;57623;53.608;10.004;2023-06-22T02:29:26;17.30;99.90
1578;DHT22;57623;53.608;10.004;2023-06-22T02:31:54;17.30;99.90
1578;DHT22;57623;53.608;10.004;2023-06-22T02:34:24;17.30;99.90
1578;DHT22;57623;53.608;10.004;2023-06-22T02:36:52;17.30;99.90
1578;DHT22;57623;53.608;10.004;2023-06-22T02:39:21;17.30;99.90
1578;DHT22;57623;53.608;10.004;2023-06-22T02:41:50;17.20;99.90
1578;DHT22;57623;53.608;10.004;2023-06-22T02:44:19;17.20;99.90
1578;DHT22;57623;53.608;10.004;2023-06-22T02:46:47;17.20;99.90
1578;DHT22;57623;53.608;10.004;2023-06-22T02:49:15;17.20;99.90
1578;DHT22;57623;53.608;10.004;2023-06-22T02:51:48;17.20;99.90
1578;DHT22;57623;53.608;10.004;2023-06-22T02:54:16;17.10;99.90
1578;DHT22;57623;53.608;10.004;2023-06-22T02:56:44;17.10;99.90
1578;DHT22;57623;53.608;10.004;2023-06-22T02:59:12;17.10;99.90
1578;DHT22;57623;53.608;10.004;2023-06-22T03:01:40;17.10;99.90
1578;DHT22;57623;53.608;10.004;2023-06-22T03:04:08;17.00;99.90
1578;DHT22;57623;53.608;10.004;2023-06-22T03:06:36;17.00;99.90
1578;DHT22;57623;53.608;10.004;2023-06-22T03:09:09;17.00;99.90
1578;DHT22;57623;53.608;10.004;2023-06-22T03:11:37;17.00;99.90
1578;DHT22;57623;53.608;10.004;2023-06-22T03:14:05;17.00;99.90
1578;DHT22;57623;53.608;10.004;2023-06-22T03:16:33;17.00;99.90
1578;DHT22;57623;53.608;10.004;2023-06-22T03:19:01;16.90;99.90
1578;DHT22;57623;53.608;10.004;2023-06-22T03:21:29;16.90;99.90
1578;DHT22;57623;53.608;10.004;2023-06-22T03:23:58;16.90;99.90
1578;DHT22;57623;53.608;10.004;2023-06-22T03:26:28;16.90;99.90
1578;DHT22;57623;53.608;10.004;2023-06-22T03:28:56;16.90;99.90
1578;DHT22;57623;53.608;10.004;2023-06-22T03:31:24;16.90;99.90
1578;DHT22;57623;53.608;10.004;2023-06-22T03:33:53;16.90;99.90
1578;DHT22;57623;53.608;10.004;2023-06-22T03:36:21;16.90;99.90
1578;DHT22;57623;53.608;10.004;2023-06-22T03:38:49;16.90;99.90
1578;DHT22;57623;53.608;10.004;2023-06-22T03:41:18;16.90;99.90
1578;DHT22;57623;53.608;10.004;2023-06-22T03:43:47;16.80;99.90
1578;DHT22;57623;53.608;10.004;2023-06-22T03:46:15;16.80;99.90
1578;DHT22;57623;53.608;10.004;2023-06-22T03:48:43;16.90;99.90
1578;DHT22;57623;53.608;10.004;2023-06-22T03:51:11;16.90;99.90
1578;DHT22;57623;53.608;10.004;2023-06-22T03:53:39;16.90;99.90
1578;DHT22;57623;53.608;10.004;2023-06-22T03:56:07;16.90;99.90
1578;DHT22;57623;53.608;10.004;2023-06-22T03:58:35;16.90;99.90
1578;DHT22;57623;53.608;10.004;2023-06-22T04:01:10;17.00;99.90
1578;DHT22;57623;53.608;10.004;2023-06-22T04:03:39;17.00;99.90
1578;DHT22;57623;53.608;10.004;2023-06-22T04:06:07;17.00;99.90
1578;DHT22;57623;53.608;10.004;2023-06-22T04:08:35;17.10;99.90
1578;DHT22;57623;53.608;10.004;2023-06-22T04:11:03;17.10;99.90
1578;DHT22;57623;53.608;10.004;2023-06-22T04:13:31;17.10;99.90
1578;DHT22;57623;53.608;10.004;2023-06-22T04:16:00;17.20;99.90
1578;DHT22;57623;53.608;10.004;2023-06-22T04:18:29;17.20;99.90
1578;DHT22;57623;53.608;10.004;2023-06-22T04:20:57;17.20;99.90
1578;DHT22;57623;53.608;10.004;2023-06-22T04:23:25;17.20;99.90
1578;DHT22;57623;53.608;10.004;2023-06-22T04:25:53;17.20;99.90
1578;DHT22;57623;53.608;10.004;2023-06-22T04:28:23;17.30;99.90
1578;DHT22;57623;53.608;10.004;2023-06-22T04:30:54;17.30;99.90
1578;DHT22;57623;53.608;10.004;2023-06-22T04:33:24;17.30;99.90
1578;DHT22;57623;53.608;10.004;2023-06-22T04:35:54;17.30;99.90
1578;DHT22;57623;53.608;10.004;2023-06-22T04:38:25;17.40;99.90
1578;DHT22;57623;53.608;10.004;2023-06-22T04:40:53;17.50;99.90
1578;DHT22;57623;53.608;10.004;2023-06-22T04:43:21;17.40;99.90
1578;DHT22;57623;53.608;10.004;2023-06-22T04:45:49;17.50;99.90
1578;DHT22;57623;53.608;10.004;2023-06-22T04:48:19;17.50;99.90
1578;DHT22;57623;53.608;10.004;2023-06-22T04:50:47;17.60;99.90
1578;DHT22;57623;53.608;10.004;2023-06-22T04:53:16;17.60;99.90
1578;DHT22;57623;53.608;10.004;2023-06-22T04:55:44;17.60;99.90
1578;DHT22;57623;53.608;10.004;2023-06-22T04:58:15;17.60;99.90
1578;DHT22;57623;53.608;10.004;2023-06-22T05:00:46;17.70;99.90
1578;DHT22;57623;53.608;10.004;2023-06-22T05:03:17;17.80;99.90
1578;DHT22;57623;53.608;10.004;2023-06-22T05:05:46;17.80;99.90
1578;DHT22;57623;53.608;10.004;2023-06-22T05:08:17;17.80;99.90
1578;DHT22;57623;53.608;10.004;2023-06-22T05:10:45;17.90;99.90
1578;DHT22;57623;53.608;10.004;2023-06-22T05:13:31;17.90;99.90
1578;DHT22;57623;53.608;10.004;2023-06-22T05:15:59;18.00;99.90
1578;DHT22;57623;53.608;10.004;2023-06-22T05:18:30;18.00;99.90
1578;DHT22;57623;53.608;10.004;2023-06-22T05:20:59;18.10;99.90
1578;DHT22;57623;53.608;10.004;2023-06-22T05:23:28;18.10;99.90
1578;DHT22;57623;53.608;10.004;2023-06-22T05:25:56;18.20;99.90
1578;DHT22;57623;53.608;10.004;2023-06-22T05:28:25;18.20;99.90
1578;DHT22;57623;53.608;10.004;2023-06-22T05:30:53;18.30;99.90
1578;DHT22;57623;53.608;10.004;2023-06-22T05:33:21;18.40;99.90
1578;DHT22;57623;53.608;10.004;2023-06-22T05:35:49;18.50;99.90
1578;DHT22;57623;53.608;10.004;2023-06-22T05:38:17;18.60;99.90
1578;DHT22;57623;53.608;10.004;2023-06-22T05:40:46;18.70;99.90
1578;DHT22;57623;53.608;10.004;2023-06-22T05:43:15;18.80;99.90
1578;DHT22;57623;53.608;10.004;2023-06-22T05:45:43;18.80;99.90
1578;DHT22;57623;53.608;10.004;2023-06-22T05:48:11;18.80;99.90
1578;DHT22;57623;53.608;10.004;2023-06-22T05:50:39;18.90;99.90
1578;DHT22;57623;53.608;10.004;2023-06-22T05:53:07;18.90;99.90
1578;DHT22;57623;53.608;10.004;2023-06-22T05:55:35;18.90;99.90
1578;DHT22;57623;53.608;10.004;2023-06-22T05:58:04;19.00;99.90
1578;DHT22;57623;53.608;10.004;2023-06-22T06:00:32;19.00;99.90
1578;DHT22;57623;53.608;10.004;2023-06-22T06:03:01;19.10;99.90
1578;DHT22;57623;53.608;10.004;2023-06-22T06:05:31;19.20;99.90
1578;DHT22;57623;53.608;10.004;2023-06-22T06:07:59;19.30;99.90
1578;DHT22;57623;53.608;10.004;2023-06-22T06:10:27;19.30;99.90
1578;DHT22;57623;53.608;10.004;2023-06-22T06:12:57;19.30;99.90
1578;DHT22;57623;53.608;10.004;2023-06-22T06:15:26;19.30;99.90
1578;DHT22;57623;53.608;10.004;2023-06-22T06:17:54;19.40;99.90
1578;DHT22;57623;53.608;10.004;2023-06-22T06:20:24;19.50;99.90
1578;DHT22;57623;53.608;10.004;2023-06-22T06:22:52;19.50;99.90
1578;DHT22;57623;53.608;10.004;2023-06-22T06:25:21;19.60;99.90
1578;DHT22;57623;53.608;10.004;2023-06-22T06:27:50;19.70;99.90
1578;DHT22;57623;53.608;10.004;2023-06-22T06:30:19;19.80;99.90
1578;DHT22;57623;53.608;10.004;2023-06-22T06:32:49;19.90;99.90
1578;DHT22;57623;53.608;10.004;2023-06-22T06:35:17;20.10;99.90
1578;DHT22;57623;53.608;10.004;2023-06-22T06:37:48;20.10;99.90
1578;DHT22;57623;53.608;10.004;2023-06-22T06:40:17;20.20;99.90
1578;DHT22;57623;53.608;10.004;2023-06-22T06:42:47;20.20;99.90
1578;DHT22;57623;53.608;10.004;2023-06-22T06:45:17;20.20;99.90
1578;DHT22;57623;53.608;10.004;2023-06-22T06:47:46;20.30;99.90
1578;DHT22;57623;53.608;10.004;2023-06-22T06:50:15;20.30;99.90
1578;DHT22;57623;53.608;10.004;2023-06-22T06:52:44;20.30;99.90
1578;DHT22;57623;53.608;10.004;2023-06-22T06:55:12;20.30;99.90
1578;DHT22;57623;53.608;10.004;2023-06-22T06:57:41;20.30;99.90
1578;DHT22;57623;53.608;10.004;2023-06-22T07:00:11;20.30;99.90
1578;DHT22;57623;53.608;10.004;2023-06-22T07:02:41;20.30;99.90
1578;DHT22;57623;53.608;10.004;2023-06-22T07:05:11;20.30;99.90
1578;DHT22;57623;53.608;10.004;2023-06-22T07:07:41;20.40;99.90
1578;DHT22;57623;53.608;10.004;2023-06-22T07:10:10;20.40;99.90
1578;DHT22;57623;53.608;10.004;2023-06-22T07:12:38;20.40;99.90
1578;DHT22;57623;53.608;10.004;2023-06-22T07:15:08;20.50;99.90
1578;DHT22;57623;53.608;10.004;2023-06-22T07:17:37;20.50;99.90
1578;DHT22;57623;53.608;10.004;2023-06-22T07:20:07;20.60;99.90
1578;DHT22;57623;53.608;10.004;2023-06-22T07:22:37;20.70;99.90
1578;DHT22;57623;53.608;10.004;2023-06-22T07:25:08;20.80;99.90
1578;DHT22;57623;53.608;10.004;2023-06-22T07:27:37;20.80;99.90
1578;DHT22;57623;53.608;10.004;2023-06-22T07:30:07;20.90;99.90
1578;DHT22;57623;53.608;10.004;2023-06-22T07:32:36;20.90;99.90
1578;DHT22;57623;53.608;10.004;2023-06-22T07:35:05;21.00;99.90
1578;DHT22;57623;53.608;10.004;2023-06-22T07:37:33;21.10;99.90
1578;DHT22;57623;53.608;10.004;2023-06-22T07:40:02;21.20;99.90
1578;DHT22;57623;53.608;10.004;2023-06-22T07:42:34;21.20;99.90
1578;DHT22;57623;53.608;10.004;2023-06-22T07:45:03;21.30;99.90
1578;DHT22;57623;53.608;10.004;2023-06-22T07:47:32;21.30;99.90
1578;DHT22;57623;53.608;10.004;2023-06-22T07:50:03;21.40;99.90
1578;DHT22;57623;53.608;10.004;2023-06-22T07:52:32;21.50;99.90
1578;DHT22;57623;53.608;10.004;2023-06-22T07:55:01;21.60;99.90
1578;DHT22;57623;53.608;10.004;2023-06-22T07:57:30;21.70;99.90
1578;DHT22;57623;53.608;10.004;2023-06-22T08:00:04;21.80;99.90
1578;DHT22;57623;53.608;10.004;2023-06-22T08:02:39;21.90;99.90
1578;DHT22;57623;53.608;10.004;2023-06-22T08:05:08;22.00;99.90
1578;DHT22;57623;53.608;10.004;2023-06-22T08:07:56;22.10;99.90
1578;DHT22;57623;53.608;10.004;2023-06-22T08:10:24;22.10;99.90
1578;DHT22;57623;53.608;10.004;2023-06-22T08:12:52;22.10;99.90
1578;DHT22;57623;53.608;10.004;2023-06-22T08:15:21;22.10;99.90
1578;DHT22;57623;53.608;10.004;2023-06-22T08:17:49;22.20;99.90
1578;DHT22;57623;53.608;10.004;2023-06-22T08:20:19;22.20;99.90
1578;DHT22;57623;53.608;10.004;2023-06-22T08:22:47;22.30;99.90
1578;DHT22;57623;53.608;10.004;2023-06-22T08:25:15;22.30;99.90
1578;DHT22;57623;53.608;10.004;2023-06-22T08:27:45;22.20;99.90
1578;DHT22;57623;53.608;10.004;2023-06-22T08:30:14;22.30;99.90
1578;DHT22;57623;53.608;10.004;2023-06-22T08:32:44;22.30;99.90
1578;DHT22;57623;53.608;10.004;2023-06-22T08:35:12;22.30;99.90
1578;DHT22;57623;53.608;10.004;2023-06-22T08:37:40;22.40;99.90
1578;DHT22;57623;53.608;10.004;2023-06-22T08:40:09;22.40;99.90
1578;DHT22;57623;53.608;10.004;2023-06-22T08:42:39;22.50;99.90
1578;DHT22;57623;53.608;10.004;2023-06-22T08:45:09;22.60;99.90
1578;DHT22;57623;53.608;10.004;2023-06-22T08:47:37;22.70;99.90
1578;DHT22;57623;53.608;10.004;2023-06-22T08:50:08;22.90;99.90
1578;DHT22;57623;53.608;10.004;2023-06-22T08:52:36;23.00;99.90
1578;DHT22;57623;53.608;10.004;2023-06-22T08:55:05;23.00;99.90
1578;DHT22;57623;53.608;10.004;2023-06-22T08:57:33;23.00;99.90
1578;DHT22;57623;53.608;10.004;2023-06-22T09:00:05;23.10;99.90
1578;DHT22;57623;53.608;10.004;2023-06-22T09:02:38;23.30;99.90
1578;DHT22;57623;53.608;10.004;2023-06-22T09:05:09;23.40;99.90
1578;DHT22;57623;53.608;10.004;2023-06-22T09:07:37;23.50;99.90
1578;DHT22;57623;53.608;10.004;2023-06-22T09:10:06;23.60;99.90
1578;DHT22;57623;53.608;10.004;2023-06-22T09:12:35;23.60;99.90
1578;DHT22;57623;53.608;10.004;2023-06-22T09:15:05;23.70;99.90
1578;DHT22;57623;53.608;10.004;2023-06-22T09:17:40;23.70;99.90
1578;DHT22;57623;53.608;10.004;2023-06-22T09:20:10;23.80;99.90
1578;DHT22;57623;53.608;10.004;2023-06-22T09:22:39;23.80;99.90
1578;DHT22;57623;53.608;10.004;2023-06-22T09:25:07;23.90;99.90
1578;DHT22;57623;53.608;10.004;2023-06-22T09:27:35;24.00;99.90
1578;DHT22;57623;53.608;10.004;2023-06-22T09:30:05;24.10;99.90
1578;DHT22;57623;53.608;10.004;2023-06-22T09:32:33;24.10;99.90
1578;DHT22;57623;53.608;10.004;2023-06-22T09:35:03;24.10;99.90
1578;DHT22;57623;53.608;10.004;2023-06-22T09:37:34;24.20;99.90
1578;DHT22;57623;53.608;10.004;2023-06-22T09:40:02;24.30;99.90
1578;DHT22;57623;53.608;10.004;2023-06-22T09:42:35;24.40;99.90
1578;DHT22;57623;53.608;10.004;2023-06-22T09:45:04;24.50;99.90
1578;DHT22;57623;53.608;10.004;2023-06-22T09:47:32;24.50;99.90
1578;DHT22;57623;53.608;10.004;2023-06-22T09:50:00;24.60;99.90
1578;DHT22;57623;53.608;10.004;2023-06-22T09:52:28;24.70;99.90
1578;DHT22;57623;53.608;10.004;2023-06-22T09:55:14;24.80;99.90
1578;DHT22;57623;53.608;10.004;2023-06-22T09:57:43;24.90;99.90
1578;DHT22;57623;53.608;10.004;2023-06-22T10:00:12;24.90;99.90
1578;DHT22;57623;53.608;10.004;2023-06-22T10:02:41;25.00;99.90
1578;DHT22;57623;53.608;10.004;2023-06-22T10:05:10;25.10;99.90
1578;DHT22;57623;53.608;10.004;2023-06-22T10:07:39;25.10;99.90
1578;DHT22;57623;53.608;10.004;2023-06-22T10:10:09;25.00;99.90
1578;DHT22;57623;53.608;10.004;2023-06-22T10:12:41;25.10;99.90
1578;DHT22;57623;53.608;10.004;2023-06-22T10:15:10;25.30;99.90
1578;DHT22;57623;53.608;10.004;2023-06-22T10:17:39;25.40;99.90
1578;DHT22;57623;53.608;10.004;2023-06-22T10:20:08;25.50;99.90
1578;DHT22;57623;53.608;10.004;2023-06-22T10:22:39;25.50;99.90
1578;DHT22;57623;53.608;10.004;2023-06-22T10:25:08;25.70;99.90
1578;DHT22;57623;53.608;10.004;2023-06-22T10:27:36;25.80;99.90
1578;DHT22;57623;53.608;10.004;2023-06-22T10:30:09;25.90;99.90
1578;DHT22;57623;53.608;10.004;2023-06-22T10:32:39;26.00;99.90
1578;DHT22;57623;53.608;10.004;2023-06-22T10:35:09;26.00;99.90
1578;DHT22;57623;53.608;10.004;2023-06-22T10:37:37;26.10;99.90
1578;DHT22;57623;53.608;10.004;2023-06-22T10:40:06;26.20;99.90
1578;DHT22;57623;53.608;10.004;2023-06-22T10:42:35;26.30;99.90
1578;DHT22;57623;53.608;10.004;2023-06-22T10:45:03;26.30;99.90
1578;DHT22;57623;53.608;10.004;2023-06-22T10:47:32;26.40;99.90
1578;DHT22;57623;53.608;10.004;2023-06-22T10:50:01;26.30;99.90
1578;DHT22;57623;53.608;10.004;2023-06-22T10:52:29;26.40;99.90
1578;DHT22;57623;53.608;10.004;2023-06-22T10:54:58;26.40;99.90
1578;DHT22;57623;53.608;10.004;2023-06-22T10:57:26;26.40;99.90
1578;DHT22;57623;53.608;10.004;2023-06-22T10:59:54;26.50;99.90
1578;DHT22;57623;53.608;10.004;2023-06-22T11:02:21;26.60;99.90
1578;DHT22;57623;53.608;10.004;2023-06-22T11:04:51;26.70;99.90
1578;DHT22;57623;53.608;10.004;2023-06-22T11:07:19;26.60;99.90
1578;DHT22;57623;53.608;10.004;2023-06-22T11:09:47;26.80;99.90
1578;DHT22;57623;53.608;10.004;2023-06-22T11:12:15;26.80;99.90
1578;DHT22;57623;53.608;10.004;2023-06-22T11:14:43;26.90;99.90
1578;DHT22;57623;53.608;10.004;2023-06-22T11:17:11;27.00;99.90
1578;DHT22;57623;53.608;10.004;2023-06-22T11:19:39;27.00;99.90
1578;DHT22;57623;53.608;10.004;2023-06-22T11:22:08;27.00;99.90
1578;DHT22;57623;53.608;10.004;2023-06-22T11:24:36;27.00;99.90
1578;DHT22;57623;53.608;10.004;2023-06-22T11:27:05;26.90;99.90
1578;DHT22;57623;53.608;10.004;2023-06-22T11:29:33;26.90;99.90
1578;DHT22;57623;53.608;10.004;2023-06-22T11:32:21;27.10;99.90
1578;DHT22;57623;53.608;10.004;2023-06-22T11:34:49;27.30;99.90
1578;DHT22;57623;53.608;10.004;2023-06-22T11:37:18;27.50;99.90
1578;DHT22;57623;53.608;10.004;2023-06-22T11:39:46;27.70;99.90
1578;DHT22;57623;53.608;10.004;2023-06-22T11:42:18;27.80;99.90
1578;DHT22;57623;53.608;10.004;2023-06-22T11:44:46;28.00;99.90
1578;DHT22;57623;53.608;10.004;2023-06-22T11:47:14;28.20;99.90
1578;DHT22;57623;53.608;10.004;2023-06-22T11:49:42;28.20;99.90
1578;DHT22;57623;53.608;10.004;2023-06-22T11:52:10;28.30;99.90
1578;DHT22;57623;53.608;10.004;2023-06-22T11:54:40;28.40;99.90
1578;DHT22;57623;53.608;10.004;2023-06-22T11:57:08;28.50;99.90
1578;DHT22;57623;53.608;10.004;2023-06-22T11:59:35;28.60;99.90
1578;DHT22;57623;53.608;10.004;2023-06-22T12:02:04;28.70;99.90
1578;DHT22;57623;53.608;10.004;2023-06-22T12:04:34;28.70;99.90
1578;DHT22;57623;53.608;10.004;2023-06-22T12:07:02;28.80;99.90
1578;DHT22;57623;53.608;10.004;2023-06-22T12:09:30;28.90;99.90
1578;DHT22;57623;53.608;10.004;2023-06-22T12:11:59;28.70;99.90
1578;DHT22;57623;53.608;10.004;2023-06-22T12:14:28;28.60;99.90
1578;DHT22;57623;53.608;10.004;2023-06-22T12:16:58;28.70;99.90
1578;DHT22;57623;53.608;10.004;2023-06-22T12:19:26;28.90;99.90
1578;DHT22;57623;53.608;10.004;2023-06-22T12:21:54;29.00;99.90
1578;DHT22;57623;53.608;10.004;2023-06-22T12:24:22;29.00;99.90
1578;DHT22;57623;53.608;10.004;2023-06-22T12:26:50;29.10;99.90
1578;DHT22;57623;53.608;10.004;2023-06-22T12:29:23;29.20;99.90
1578;DHT22;57623;53.608;10.004;2023-06-22T12:31:51;29.30;99.90
1578;DHT22;57623;53.608;10.004;2023-06-22T12:34:19;29.20;99.90
1578;DHT22;57623;53.608;10.004;2023-06-22T12:36:47;29.20;99.90
1578;DHT22;57623;53.608;10.004;2023-06-22T12:39:15;29.20;99.90
1578;DHT22;57623;53.608;10.004;2023-06-22T12:41:43;29.20;99.90
1578;DHT22;57623;53.608;10.004;2023-06-22T12:44:11;29.30;99.90
1578;DHT22;57623;53.608;10.004;2023-06-22T12:46:40;29.30;99.90
1578;DHT22;57623;53.608;10.004;2023-06-22T12:49:08;29.20;99.90
1578;DHT22;57623;53.608;10.004;2023-06-22T12:51:39;29.00;99.90
1578;DHT22;57623;53.608;10.004;2023-06-22T12:54:08;29.00;99.90
1578;DHT22;57623;53.608;10.004;2023-06-22T12:56:37;29.00;99.90
1578;DHT22;57623;53.608;10.004;2023-06-22T12:59:05;29.10;99.90
1578;DHT22;57623;53.608;10.004;2023-06-22T13:01:33;29.10;99.90
1578;DHT22;57623;53.608;10.004;2023-06-22T13:04:03;29.20;99.90
1578;DHT22;57623;53.608;10.004;2023-06-22T13:06:32;29.20;99.90
1578;DHT22;57623;53.608;10.004;2023-06-22T13:09:00;29.20;99.90
1578;DHT22;57623;53.608;10.004;2023-06-22T13:11:30;29.20;99.90
1578;DHT22;57623;53.608;10.004;2023-06-22T13:13:58;29.20;99.90
1578;DHT22;57623;53.608;10.004;2023-06-22T13:16:26;29.20;99.90
1578;DHT22;57623;53.608;10.004;2023-06-22T13:18:54;29.40;99.90
1578;DHT22;57623;53.608;10.004;2023-06-22T13:21:24;29.60;99.90
1578;DHT22;57623;53.608;10.004;2023-06-22T13:23:52;29.80;99.80
1578;DHT22;57623;53.608;10.004;2023-06-22T13:26:21;29.90;99.90
1578;DHT22;57623;53.608;10.004;2023-06-22T13:28:49;29.90;99.90
1578;DHT22;57623;53.608;10.004;2023-06-22T13:31:17;29.80;99.90
1578;DHT22;57623;53.608;10.004;2023-06-22T13:33:45;29.60;99.90
1578;DHT22;57623;53.608;10.004;2023-06-22T13:36:14;29.50;99.90
1578;DHT22;57623;53.608;10.004;2023-06-22T13:38:45;29.30;99.90
1578;DHT22;57623;53.608;10.004;2023-06-22T13:41:13;29.10;99.60
1578;DHT22;57623;53.608;10.004;2023-06-22T13:43:41;29.10;99.90
1578;DHT22;57623;53.608;10.004;2023-06-22T13:46:09;28.90;99.90
1578;DHT22;57623;53.608;10.004;2023-06-22T13:48:38;28.70;99.90
1578;DHT22;57623;53.608;10.004;2023-06-22T13:51:06;28.50;99.90
1578;DHT22;57623;53.608;10.004;2023-06-22T13:53:34;28.40;99.90
1578;DHT22;57623;53.608;10.004;2023-06-22T13:56:03;28.30;99.90
1578;DHT22;57623;53.608;10.004;2023-06-22T13:58:31;28.30;99.90
1578;DHT22;57623;53.608;10.004;2023-06-22T14:00:59;28.40;99.90
1578;DHT22;57623;53.608;10.004;2023-06-22T14:03:27;28.50;99.90
1578;DHT22;57623;53.608;10.004;2023-06-22T14:05:55;28.50;99.90
1578;DHT22;57623;53.608;10.004;2023-06-22T14:08:24;28.60;99.90
1578;DHT22;57623;53.608;10.004;2023-06-22T14:11:10;28.80;99.90
1578;DHT22;57623;53.608;10.004;2023-06-22T14:13:38;28.90;99.90
1578;DHT22;57623;53.608;10.004;2023-06-22T14:16:09;28.90;99.90
1578;DHT22;57623;53.608;10.004;2023-06-22T14:18:37;28.80;99.90
1578;DHT22;57623;53.608;10.004;2023-06-22T14:21:05;28.70;99.90
1578;DHT22;57623;53.608;10.004;2023-06-22T14:23:33;28.60;99.90
1578;DHT22;57623;53.608;10.004;2023-06-22T14:26:00;28.40;99.90
1578;DHT22;57623;53.608;10.004;2023-06-22T14:28:30;28.30;99.90
1578;DHT22;57623;53.608;10.004;2023-06-22T14:30:58;28.20;99.90
1578;DHT22;57623;53.608;10.004;2023-06-22T14:33:26;28.10;99.90
1578;DHT22;57623;53.608;10.004;2023-06-22T14:35:54;28.10;99.90
1578;DHT22;57623;53.608;10.004;2023-06-22T14:38:22;28.00;99.90
1578;DHT22;57623;53.608;10.004;2023-06-22T14:40:50;28.00;99.90
1578;DHT22;57623;53.608;10.004;2023-06-22T14:43:44;28.00;99.90
1578;DHT22;57623;53.608;10.004;2023-06-22T14:46:13;27.80;99.90
1578;DHT22;57623;53.608;10.004;2023-06-22T14:48:42;27.70;99.90
1578;DHT22;57623;53.608;10.004;2023-06-22T14:51:10;27.60;99.90
1578;DHT22;57623;53.608;10.004;2023-06-22T14:53:44;27.40;99.90
1578;DHT22;57623;53.608;10.004;2023-06-22T14:56:12;27.30;99.90
1578;DHT22;57623;53.608;10.004;2023-06-22T14:58:43;27.20;99.90
1578;DHT22;57623;53.608;10.004;2023-06-22T15:01:13;27.20;99.90
1578;DHT22;57623;53.608;10.004;2023-06-22T15:03:42;27.10;99.90
1578;DHT22;57623;53.608;10.004;2023-06-22T15:06:10;27.10;99.90
1578;DHT22;57623;53.608;10.004;2023-06-22T15:08:38;27.00;99.90
1578;DHT22;57623;53.608;10.004;2023-06-22T15:11:06;26.90;99.90
1578;DHT22;57623;53.608;10.004;2023-06-22T15:13:38;26.90;99.90
1578;DHT22;57623;53.608;10.004;2023-06-22T15:16:08;26.90;99.90
1578;DHT22;57623;53.608;10.004;2023-06-22T15:18:36;26.90;99.90
1578;DHT22;57623;53.608;10.004;2023-06-22T15:21:04;26.80;99.90
1578;DHT22;57623;53.608;10.004;2023-06-22T15:23:33;26.80;99.90
1578;DHT22;57623;53.608;10.004;2023-06-22T15:26:03;26.80;99.90
1578;DHT22;57623;53.608;10.004;2023-06-22T15:28:32;26.70;99.90
1578;DHT22;57623;53.608;10.004;2023-06-22T15:31:03;26.70;99.90
1578;DHT22;57623;53.608;10.004;2023-06-22T15:33:33;26.60;99.90
1578;DHT22;57623;53.608;10.004;2023-06-22T15:36:01;26.50;99.90
1578;DHT22;57623;53.608;10.004;2023-06-22T15:38:31;26.50;99.90
1578;DHT22;57623;53.608;10.004;2023-06-22T15:40:59;26.40;99.90
1578;DHT22;57623;53.608;10.004;2023-06-22T15:43:27;26.40;99.90